McCarran International, NV

12:20 AM PDT on September 26, 2016 (GMT -0700)
Mandalay Bay | | Change Station

Elev 2185 ft 36.09 °N, 115.17 °W | Updated 2 seconds ago

Clear
Clear
77.5 °F
Feels Like 77 °F
N
2.1
Wind Variable Wind from NE
Gusts 11.0 mph

Today
High -- | Low -- °F
--% Chance of Precip.
Yesterday
High -- | Low -- °F
Precip. -- in
Pressure 30.10 in
Visibility 10.0 miles
Clouds Clear
Heat Index 77 °F
Dew Point 29 °F
Humidity 17%
Rainfall 0.00 in
Snow Depth Not available.
6:32 AM 6:30 PM
Waning Crescent, 21% visible
METAR KLAS 260656Z 01011KT 10SM CLR 25/M05 A3016 RMK AO2 SLP191 T02501050
Pressure 30.10 in
Visibility 10.0 miles
Clouds Clear
Heat Index 77 °F
Dew Point 29 °F
Humidity 17%
Rainfall 0.00 in
Snow Depth Not available.
6:32 AM 6:30 PM
Waning Crescent, 21% visible
METAR KLAS 260656Z 01011KT 10SM CLR 25/M05 A3016 RMK AO2 SLP191 T02501050

10-Day Weather Forecast

Almanac

Astronomy

Sep. 26, 2016 Rise Set
Actual Time
Civil Twilight
Nautical Twilight
Astronomical Twilight
Moon
Length of Visible Light
Length of Day
Tomorrow will be .
, % of the Moon is Illuminated

Today's Extremes

State Highs State Lows

Community

WunderPhotos

Upload Photos

1,941,853 photos uploaded!

WunderBlog® & News

Nearby

Air Quality

  Air Quality AQ Index Pollutant
Not available.

Snow Depth

Station Depth Elevation

Earthquake Activity

City Distance Mag. Time & Date
Minimum magnitude displayed is 2.5.

Coastal Water Temperatures

Place Temperature

Stations

Nearby Weather Stations

Station Location Temp. Windchill Dew Point Humidity Wind Precip. Elev Updated Type
                   

Watches & Warnings

There are currently no watches in effect.